sensor_id;sensor_type;location;lat;lon;timestamp;pressure;altitude;pressure_sealevel;temperature;humidity
28683;BME280;15862;43.062;25.626;2023-02-13T00:02:04;102139.09;;;-2.91;100.00
28683;BME280;15862;43.062;25.626;2023-02-13T00:04:30;102146.69;;;-2.91;100.00
28683;BME280;15862;43.062;25.626;2023-02-13T00:06:55;102141.41;;;-3.03;100.00
28683;BME280;15862;43.062;25.626;2023-02-13T00:09:21;102145.56;;;-3.05;100.00
28683;BME280;15862;43.062;25.626;2023-02-13T00:11:46;102138.84;;;-3.06;100.00
28683;BME280;15862;43.062;25.626;2023-02-13T00:14:11;102139.44;;;-3.19;100.00
28683;BME280;15862;43.062;25.626;2023-02-13T00:16:37;102142.03;;;-3.16;100.00
28683;BME280;15862;43.062;25.626;2023-02-13T00:19:02;102152.94;;;-3.17;100.00
28683;BME280;15862;43.062;25.626;2023-02-13T00:21:28;102152.22;;;-3.10;100.00
28683;BME280;15862;43.062;25.626;2023-02-13T00:23:53;102154.72;;;-3.13;100.00
28683;BME280;15862;43.062;25.626;2023-02-13T00:26:19;102127.44;;;-3.30;100.00
28683;BME280;15862;43.062;25.626;2023-02-13T00:28:44;102168.25;;;-3.09;100.00
28683;BME280;15862;43.062;25.626;2023-02-13T00:31:12;102170.78;;;-3.08;100.00
28683;BME280;15862;43.062;25.626;2023-02-13T00:33:38;102167.41;;;-3.08;100.00
28683;BME280;15862;43.062;25.626;2023-02-13T00:36:09;102162.22;;;-3.16;100.00
28683;BME280;15862;43.062;25.626;2023-02-13T00:38:36;102170.84;;;-3.05;100.00
28683;BME280;15862;43.062;25.626;2023-02-13T00:41:03;102174.94;;;-3.11;100.00
28683;BME280;15862;43.062;25.626;2023-02-13T00:43:28;102157.78;;;-3.29;100.00
28683;BME280;15862;43.062;25.626;2023-02-13T00:45:54;102169.63;;;-3.26;100.00
28683;BME280;15862;43.062;25.626;2023-02-13T00:48:19;102180.53;;;-3.29;100.00
28683;BME280;15862;43.062;25.626;2023-02-13T00:50:46;102172.06;;;-3.31;100.00
28683;BME280;15862;43.062;25.626;2023-02-13T00:53:12;102174.75;;;-3.23;100.00
28683;BME280;15862;43.062;25.626;2023-02-13T00:55:37;102184.88;;;-3.22;100.00
28683;BME280;15862;43.062;25.626;2023-02-13T00:58:03;102182.16;;;-3.31;100.00
28683;BME280;15862;43.062;25.626;2023-02-13T01:00:28;102178.00;;;-3.29;100.00
28683;BME280;15862;43.062;25.626;2023-02-13T01:02:54;102178.63;;;-3.40;100.00
28683;BME280;15862;43.062;25.626;2023-02-13T01:05:19;102177.81;;;-3.38;100.00
28683;BME280;15862;43.062;25.626;2023-02-13T01:07:44;102185.53;;;-3.30;100.00
28683;BME280;15862;43.062;25.626;2023-02-13T01:10:10;102180.56;;;-3.26;100.00
28683;BME280;15862;43.062;25.626;2023-02-13T01:12:35;102168.53;;;-3.39;100.00
28683;BME280;15862;43.062;25.626;2023-02-13T01:15:01;102183.78;;;-3.33;100.00
28683;BME280;15862;43.062;25.626;2023-02-13T01:17:27;102180.34;;;-3.38;100.00
28683;BME280;15862;43.062;25.626;2023-02-13T01:19:52;102176.81;;;-3.46;100.00
28683;BME280;15862;43.062;25.626;2023-02-13T01:22:18;102174.28;;;-3.47;100.00
28683;BME280;15862;43.062;25.626;2023-02-13T01:24:43;102170.03;;;-3.50;100.00
28683;BME280;15862;43.062;25.626;2023-02-13T01:27:09;102175.00;;;-3.53;100.00
28683;BME280;15862;43.062;25.626;2023-02-13T01:29:34;102173.28;;;-3.54;100.00
28683;BME280;15862;43.062;25.626;2023-02-13T01:32:00;102180.13;;;-3.50;100.00
28683;BME280;15862;43.062;25.626;2023-02-13T01:34:27;102172.47;;;-3.53;100.00
28683;BME280;15862;43.062;25.626;2023-02-13T01:36:53;102185.81;;;-3.60;100.00
28683;BME280;15862;43.062;25.626;2023-02-13T01:39:18;102173.09;;;-3.63;100.00
28683;BME280;15862;43.062;25.626;2023-02-13T01:41:43;102183.28;;;-3.60;100.00
28683;BME280;15862;43.062;25.626;2023-02-13T01:47:13;102179.81;;;-3.65;100.00
28683;BME280;15862;43.062;25.626;2023-02-13T01:49:40;102183.03;;;-3.72;100.00
28683;BME280;15862;43.062;25.626;2023-02-13T01:52:08;102187.09;;;-3.78;100.00
28683;BME280;15862;43.062;25.626;2023-02-13T01:54:35;102187.13;;;-3.77;100.00
28683;BME280;15862;43.062;25.626;2023-02-13T01:57:08;102181.34;;;-3.71;100.00
28683;BME280;15862;43.062;25.626;2023-02-13T01:59:42;102186.44;;;-3.70;100.00
28683;BME280;15862;43.062;25.626;2023-02-13T02:02:09;102172.66;;;-3.85;100.00
28683;BME280;15862;43.062;25.626;2023-02-13T02:04:36;102184.56;;;-3.79;100.00
28683;BME280;15862;43.062;25.626;2023-02-13T02:07:07;102181.97;;;-3.82;100.00
28683;BME280;15862;43.062;25.626;2023-02-13T02:09:37;102180.09;;;-3.92;100.00
28683;BME280;15862;43.062;25.626;2023-02-13T02:14:54;102185.06;;;-3.95;100.00
28683;BME280;15862;43.062;25.626;2023-02-13T02:17:21;102179.91;;;-4.00;100.00
28683;BME280;15862;43.062;25.626;2023-02-13T02:39:15;102176.44;;;-4.05;100.00
28683;BME280;15862;43.062;25.626;2023-02-13T02:41:55;102172.81;;;-4.17;100.00
28683;BME280;15862;43.062;25.626;2023-02-13T02:55:42;102149.00;;;-4.28;100.00
28683;BME280;15862;43.062;25.626;2023-02-13T02:58:20;102182.13;;;-4.13;100.00
28683;BME280;15862;43.062;25.626;2023-02-13T03:01:12;102188.75;;;-4.18;100.00
28683;BME280;15862;43.062;25.626;2023-02-13T03:03:57;102195.72;;;-4.08;100.00
28683;BME280;15862;43.062;25.626;2023-02-13T03:06:55;102197.66;;;-3.97;100.00
28683;BME280;15862;43.062;25.626;2023-02-13T03:09:33;102197.19;;;-3.78;100.00
28683;BME280;15862;43.062;25.626;2023-02-13T03:12:22;102200.00;;;-3.65;100.00
28683;BME280;15862;43.062;25.626;2023-02-13T03:15:07;102198.63;;;-3.51;100.00
28683;BME280;15862;43.062;25.626;2023-02-13T03:17:32;102195.56;;;-3.35;100.00
28683;BME280;15862;43.062;25.626;2023-02-13T03:20:57;102189.09;;;-3.21;100.00
28683;BME280;15862;43.062;25.626;2023-02-13T03:24:02;102187.38;;;-3.22;100.00
28683;BME280;15862;43.062;25.626;2023-02-13T03:26:38;102165.19;;;-3.38;100.00
28683;BME280;15862;43.062;25.626;2023-02-13T03:32:33;102171.78;;;-3.46;100.00
28683;BME280;15862;43.062;25.626;2023-02-13T03:35:33;102159.94;;;-3.50;100.00
28683;BME280;15862;43.062;25.626;2023-02-13T03:38:28;102150.53;;;-3.57;100.00
28683;BME280;15862;43.062;25.626;2023-02-13T03:41:04;102156.28;;;-3.64;100.00
28683;BME280;15862;43.062;25.626;2023-02-13T03:44:00;102134.03;;;-3.81;100.00
28683;BME280;15862;43.062;25.626;2023-02-13T03:46:30;102138.34;;;-3.76;100.00
28683;BME280;15862;43.062;25.626;2023-02-13T03:48:58;102145.75;;;-3.84;100.00
28683;BME280;15862;43.062;25.626;2023-02-13T03:52:25;102143.16;;;-3.89;100.00
28683;BME280;15862;43.062;25.626;2023-02-13T03:54:59;102150.63;;;-3.93;100.00
28683;BME280;15862;43.062;25.626;2023-02-13T03:57:45;102141.25;;;-3.99;100.00
28683;BME280;15862;43.062;25.626;2023-02-13T04:00:36;102146.06;;;-4.11;100.00
28683;BME280;15862;43.062;25.626;2023-02-13T04:03:09;102154.44;;;-4.12;100.00
28683;BME280;15862;43.062;25.626;2023-02-13T04:05:46;102158.59;;;-4.14;100.00
28683;BME280;15862;43.062;25.626;2023-02-13T04:08:12;102163.66;;;-4.12;100.00
28683;BME280;15862;43.062;25.626;2023-02-13T04:10:53;102163.75;;;-4.08;100.00
28683;BME280;15862;43.062;25.626;2023-02-13T04:13:33;102162.81;;;-4.13;100.00
28683;BME280;15862;43.062;25.626;2023-02-13T04:16:07;102155.97;;;-4.17;100.00
28683;BME280;15862;43.062;25.626;2023-02-13T04:18:36;102158.38;;;-4.23;100.00
28683;BME280;15862;43.062;25.626;2023-02-13T04:21:03;102160.84;;;-4.26;100.00
28683;BME280;15862;43.062;25.626;2023-02-13T04:23:29;102171.91;;;-4.19;100.00
28683;BME280;15862;43.062;25.626;2023-02-13T04:25:56;102168.50;;;-4.21;100.00
28683;BME280;15862;43.062;25.626;2023-02-13T04:28:22;102171.91;;;-4.19;100.00
28683;BME280;15862;43.062;25.626;2023-02-13T04:30:47;102171.78;;;-4.25;100.00
28683;BME280;15862;43.062;25.626;2023-02-13T04:33:14;102174.28;;;-4.25;100.00
28683;BME280;15862;43.062;25.626;2023-02-13T04:35:39;102163.19;;;-4.33;100.00
28683;BME280;15862;43.062;25.626;2023-02-13T04:38:05;102169.16;;;-4.30;100.00
28683;BME280;15862;43.062;25.626;2023-02-13T04:40:30;102168.19;;;-4.36;100.00
28683;BME280;15862;43.062;25.626;2023-02-13T04:42:55;102169.81;;;-4.38;100.00
28683;BME280;15862;43.062;25.626;2023-02-13T04:45:21;102169.72;;;-4.41;100.00
28683;BME280;15862;43.062;25.626;2023-02-13T04:47:53;102172.19;;;-4.44;100.00
28683;BME280;15862;43.062;25.626;2023-02-13T04:50:20;102167.06;;;-4.47;100.00
28683;BME280;15862;43.062;25.626;2023-02-13T04:52:45;102168.81;;;-4.43;100.00
28683;BME280;15862;43.062;25.626;2023-02-13T04:55:11;102171.44;;;-4.40;100.00
28683;BME280;15862;43.062;25.626;2023-02-13T04:57:37;102178.06;;;-4.45;100.00
28683;BME280;15862;43.062;25.626;2023-02-13T05:00:05;102182.09;;;-4.50;100.00
28683;BME280;15862;43.062;25.626;2023-02-13T05:02:31;102174.53;;;-4.50;100.00
28683;BME280;15862;43.062;25.626;2023-02-13T05:04:56;102172.78;;;-4.54;100.00
28683;BME280;15862;43.062;25.626;2023-02-13T05:07:21;102191.50;;;-4.43;100.00
28683;BME280;15862;43.062;25.626;2023-02-13T05:09:47;102166.81;;;-4.57;100.00
28683;BME280;15862;43.062;25.626;2023-02-13T05:12:12;102170.16;;;-4.58;100.00
28683;BME280;15862;43.062;25.626;2023-02-13T05:14:38;102175.16;;;-4.60;100.00
28683;BME280;15862;43.062;25.626;2023-02-13T05:17:03;102182.59;;;-4.66;100.00
28683;BME280;15862;43.062;25.626;2023-02-13T05:19:28;102178.31;;;-4.68;100.00
28683;BME280;15862;43.062;25.626;2023-02-13T05:21:54;102179.22;;;-4.65;100.00
28683;BME280;15862;43.062;25.626;2023-02-13T05:24:37;102185.22;;;-4.61;100.00
28683;BME280;15862;43.062;25.626;2023-02-13T05:27:03;102180.88;;;-4.67;100.00
28683;BME280;15862;43.062;25.626;2023-02-13T05:29:28;102187.63;;;-4.66;100.00
28683;BME280;15862;43.062;25.626;2023-02-13T05:31:55;102184.22;;;-4.68;100.00
28683;BME280;15862;43.062;25.626;2023-02-13T05:34:24;102185.25;;;-4.60;100.00
28683;BME280;15862;43.062;25.626;2023-02-13T05:36:50;102189.69;;;-4.50;100.00
28683;BME280;15862;43.062;25.626;2023-02-13T05:39:15;102191.50;;;-4.43;100.00
28683;BME280;15862;43.062;25.626;2023-02-13T05:41:42;102202.63;;;-4.35;100.00
28683;BME280;15862;43.062;25.626;2023-02-13T05:44:08;102196.66;;;-4.40;100.00
28683;BME280;15862;43.062;25.626;2023-02-13T05:46:36;102222.19;;;-4.27;100.00
28683;BME280;15862;43.062;25.626;2023-02-13T05:49:02;102196.91;;;-4.28;100.00
28683;BME280;15862;43.062;25.626;2023-02-13T05:51:28;102227.69;;;-4.07;100.00
28683;BME280;15862;43.062;25.626;2023-02-13T05:53:53;102224.50;;;-3.99;100.00
28683;BME280;15862;43.062;25.626;2023-02-13T05:56:18;102218.75;;;-3.93;100.00
28683;BME280;15862;43.062;25.626;2023-02-13T05:58:44;102209.69;;;-3.84;100.00
28683;BME280;15862;43.062;25.626;2023-02-13T06:01:09;102220.91;;;-3.72;100.00
28683;BME280;15862;43.062;25.626;2023-02-13T06:03:35;102232.00;;;-3.64;100.00
28683;BME280;15862;43.062;25.626;2023-02-13T06:06:00;102232.28;;;-3.49;100.00
28683;BME280;15862;43.062;25.626;2023-02-13T06:08:26;102236.00;;;-3.32;100.00
28683;BME280;15862;43.062;25.626;2023-02-13T06:10:51;102232.91;;;-3.19;100.00
28683;BME280;15862;43.062;25.626;2023-02-13T06:13:17;102235.66;;;-3.07;100.00
28683;BME280;15862;43.062;25.626;2023-02-13T06:15:43;102213.06;;;-3.00;100.00
28683;BME280;15862;43.062;25.626;2023-02-13T06:18:09;102242.06;;;-2.80;100.00
28683;BME280;15862;43.062;25.626;2023-02-13T06:20:35;102240.59;;;-2.67;100.00
28683;BME280;15862;43.062;25.626;2023-02-13T06:23:01;102249.44;;;-2.43;100.00
28683;BME280;15862;43.062;25.626;2023-02-13T06:25:27;102246.50;;;-2.17;100.00
28683;BME280;15862;43.062;25.626;2023-02-13T06:27:53;102240.00;;;-1.36;100.00
28683;BME280;15862;43.062;25.626;2023-02-13T06:30:19;102274.38;;;0.10;100.00
28683;BME280;15862;43.062;25.626;2023-02-13T06:32:46;102281.72;;;1.42;100.00
28683;BME280;15862;43.062;25.626;2023-02-13T06:35:12;102295.31;;;2.35;100.00
28683;BME280;15862;43.062;25.626;2023-02-13T06:37:37;102293.13;;;3.49;100.00
28683;BME280;15862;43.062;25.626;2023-02-13T06:40:07;102280.38;;;4.37;100.00
28683;BME280;15862;43.062;25.626;2023-02-13T06:42:36;102290.25;;;5.37;100.00
28683;BME280;15862;43.062;25.626;2023-02-13T06:45:02;102267.00;;;6.04;100.00
28683;BME280;15862;43.062;25.626;2023-02-13T06:47:27;102206.28;;;6.46;100.00
28683;BME280;15862;43.062;25.626;2023-02-13T06:49:53;102188.31;;;7.23;99.45
28683;BME280;15862;43.062;25.626;2023-02-13T06:52:19;102190.72;;;7.64;97.88
28683;BME280;15862;43.062;25.626;2023-02-13T06:54:44;102172.91;;;8.22;91.54
28683;BME280;15862;43.062;25.626;2023-02-13T06:57:09;102177.56;;;8.68;76.53
28683;BME280;15862;43.062;25.626;2023-02-13T06:59:35;102178.16;;;9.05;71.85
28683;BME280;15862;43.062;25.626;2023-02-13T07:02:00;102175.31;;;9.66;61.86
28683;BME280;15862;43.062;25.626;2023-02-13T07:04:26;102171.72;;;10.18;54.14
28683;BME280;15862;43.062;25.626;2023-02-13T07:06:54;102173.06;;;10.97;50.33
28683;BME280;15862;43.062;25.626;2023-02-13T07:09:32;102165.41;;;11.58;46.76
28683;BME280;15862;43.062;25.626;2023-02-13T07:12:01;102175.75;;;11.78;45.52
28683;BME280;15862;43.062;25.626;2023-02-13T07:14:27;102175.50;;;12.42;42.05
28683;BME280;15862;43.062;25.626;2023-02-13T07:16:52;102170.44;;;12.39;43.41
28683;BME280;15862;43.062;25.626;2023-02-13T07:19:18;102159.09;;;12.60;42.46
28683;BME280;15862;43.062;25.626;2023-02-13T07:21:43;102144.88;;;12.31;42.12
28683;BME280;15862;43.062;25.626;2023-02-13T07:24:09;102166.34;;;12.15;42.42
28683;BME280;15862;43.062;25.626;2023-02-13T07:26:34;102162.22;;;13.21;40.82
28683;BME280;15862;43.062;25.626;2023-02-13T07:29:00;102159.78;;;13.18;41.36
28683;BME280;15862;43.062;25.626;2023-02-13T07:31:32;102159.63;;;14.06;39.56
28683;BME280;15862;43.062;25.626;2023-02-13T07:33:57;102150.25;;;13.86;39.57
28683;BME280;15862;43.062;25.626;2023-02-13T07:36:23;102157.81;;;14.40;37.30
28683;BME280;15862;43.062;25.626;2023-02-13T07:38:48;102149.91;;;14.26;38.21
28683;BME280;15862;43.062;25.626;2023-02-13T07:41:13;102152.25;;;14.31;38.69
28683;BME280;15862;43.062;25.626;2023-02-13T07:43:39;102154.97;;;15.06;36.99
28683;BME280;15862;43.062;25.626;2023-02-13T07:48:53;102150.88;;;15.90;35.24
28683;BME280;15862;43.062;25.626;2023-02-13T07:51:19;102136.91;;;16.61;33.66
28683;BME280;15862;43.062;25.626;2023-02-13T07:53:44;102136.50;;;15.55;35.74
28683;BME280;15862;43.062;25.626;2023-02-13T07:56:10;102136.75;;;15.94;35.86
28683;BME280;15862;43.062;25.626;2023-02-13T07:58:36;102122.34;;;17.37;33.28
28683;BME280;15862;43.062;25.626;2023-02-13T08:01:08;102132.19;;;17.46;32.73
28683;BME280;15862;43.062;25.626;2023-02-13T08:03:33;102116.81;;;18.29;31.68
28683;BME280;15862;43.062;25.626;2023-02-13T08:05:59;102129.44;;;19.18;30.17
28683;BME280;15862;43.062;25.626;2023-02-13T08:08:24;102120.94;;;18.20;31.36
28683;BME280;15862;43.062;25.626;2023-02-13T08:10:50;102119.72;;;18.85;30.62
28683;BME280;15862;43.062;25.626;2023-02-13T08:13:33;102123.97;;;19.56;29.68
28683;BME280;15862;43.062;25.626;2023-02-13T08:15:59;102115.53;;;20.73;28.87
28683;BME280;15862;43.062;25.626;2023-02-13T08:18:24;102112.09;;;21.46;27.40
28683;BME280;15862;43.062;25.626;2023-02-13T08:20:50;102112.13;;;21.14;27.24
28683;BME280;15862;43.062;25.626;2023-02-13T08:23:15;102110.94;;;21.39;27.24
28683;BME280;15862;43.062;25.626;2023-02-13T08:25:41;102108.81;;;22.24;26.95
28683;BME280;15862;43.062;25.626;2023-02-13T08:28:07;102106.53;;;21.80;26.45
28683;BME280;15862;43.062;25.626;2023-02-13T08:30:32;102103.13;;;22.28;26.52
28683;BME280;15862;43.062;25.626;2023-02-13T08:32:58;102097.41;;;22.62;26.01
28683;BME280;15862;43.062;25.626;2023-02-13T08:35:23;102088.69;;;22.52;25.76
28683;BME280;15862;43.062;25.626;2023-02-13T08:37:52;102072.47;;;21.47;26.75
28683;BME280;15862;43.062;25.626;2023-02-13T08:40:17;102084.00;;;22.26;26.40
28683;BME280;15862;43.062;25.626;2023-02-13T08:42:43;102084.25;;;21.63;26.32
28683;BME280;15862;43.062;25.626;2023-02-13T08:45:08;102086.56;;;22.46;25.97
28683;BME280;15862;43.062;25.626;2023-02-13T08:47:36;102086.31;;;22.20;26.08
28683;BME280;15862;43.062;25.626;2023-02-13T08:50:02;102070.00;;;23.03;25.81
28683;BME280;15862;43.062;25.626;2023-02-13T08:52:27;102079.13;;;21.10;26.82
28683;BME280;15862;43.062;25.626;2023-02-13T08:54:53;102065.59;;;18.96;28.78
28683;BME280;15862;43.062;25.626;2023-02-13T08:57:19;102073.13;;;17.81;31.51
28683;BME280;15862;43.062;25.626;2023-02-13T08:59:44;102073.22;;;17.79;31.80
28683;BME280;15862;43.062;25.626;2023-02-13T09:02:10;102067.84;;;19.13;30.23
28683;BME280;15862;43.062;25.626;2023-02-13T09:04:36;102068.25;;;19.98;29.06
28683;BME280;15862;43.062;25.626;2023-02-13T09:07:01;102060.50;;;19.96;28.51
28683;BME280;15862;43.062;25.626;2023-02-13T09:09:27;102066.94;;;20.03;28.36
28683;BME280;15862;43.062;25.626;2023-02-13T09:11:52;102074.50;;;20.61;28.10
28683;BME280;15862;43.062;25.626;2023-02-13T09:14:20;102055.19;;;20.93;27.92
28683;BME280;15862;43.062;25.626;2023-02-13T09:16:45;102047.38;;;21.84;27.29
28683;BME280;15862;43.062;25.626;2023-02-13T09:19:11;102051.97;;;23.17;25.98
28683;BME280;15862;43.062;25.626;2023-02-13T09:21:36;102051.56;;;23.86;25.13
28683;BME280;15862;43.062;25.626;2023-02-13T09:24:06;102046.72;;;24.08;25.24
28683;BME280;15862;43.062;25.626;2023-02-13T09:26:31;102041.16;;;24.11;24.92
28683;BME280;15862;43.062;25.626;2023-02-13T09:28:57;102032.25;;;25.51;23.88
28683;BME280;15862;43.062;25.626;2023-02-13T09:31:25;102034.75;;;25.53;23.34
28683;BME280;15862;43.062;25.626;2023-02-13T09:33:51;102041.88;;;25.78;23.51
28683;BME280;15862;43.062;25.626;2023-02-13T09:36:20;102022.06;;;25.64;23.28
28683;BME280;15862;43.062;25.626;2023-02-13T09:38:51;102026.00;;;25.86;24.06
28683;BME280;15862;43.062;25.626;2023-02-13T09:41:39;102020.81;;;25.51;23.65
28683;BME280;15862;43.062;25.626;2023-02-13T09:44:19;102017.28;;;26.50;22.53
28683;BME280;15862;43.062;25.626;2023-02-13T09:47:29;102016.72;;;26.23;23.49
28683;BME280;15862;43.062;25.626;2023-02-13T09:50:19;102000.44;;;25.44;23.81
28683;BME280;15862;43.062;25.626;2023-02-13T09:52:48;102001.13;;;25.53;23.96
28683;BME280;15862;43.062;25.626;2023-02-13T09:55:30;102002.72;;;25.72;23.78
28683;BME280;15862;43.062;25.626;2023-02-13T10:00:50;101972.91;;;24.24;24.47
28683;BME280;15862;43.062;25.626;2023-02-13T10:03:26;101988.53;;;24.18;24.95
28683;BME280;15862;43.062;25.626;2023-02-13T10:06:05;101974.63;;;25.03;24.20
28683;BME280;15862;43.062;25.626;2023-02-13T10:11:55;101964.84;;;25.13;23.79
28683;BME280;15862;43.062;25.626;2023-02-13T10:14:44;101962.53;;;25.18;24.40
28683;BME280;15862;43.062;25.626;2023-02-13T10:17:22;101958.63;;;25.22;24.45
28683;BME280;15862;43.062;25.626;2023-02-13T10:19:56;101959.72;;;25.78;24.33
28683;BME280;15862;43.062;25.626;2023-02-13T10:22:43;101954.97;;;25.89;23.61
28683;BME280;15862;43.062;25.626;2023-02-13T10:25:18;101951.47;;;25.81;23.90
28683;BME280;15862;43.062;25.626;2023-02-13T10:27:54;101945.53;;;26.60;23.30
28683;BME280;15862;43.062;25.626;2023-02-13T10:30:25;101939.75;;;25.91;23.43
28683;BME280;15862;43.062;25.626;2023-02-13T10:33:04;101946.41;;;26.11;23.69
28683;BME280;15862;43.062;25.626;2023-02-13T10:38:23;101929.91;;;25.09;24.27
28683;BME280;15862;43.062;25.626;2023-02-13T11:00:50;101914.72;;;23.36;26.82
28683;BME280;15862;43.062;25.626;2023-02-13T11:03:24;101906.88;;;23.80;26.62
28683;BME280;15862;43.062;25.626;2023-02-13T11:05:51;101892.63;;;23.37;27.15
28683;BME280;15862;43.062;25.626;2023-02-13T11:10:52;101904.50;;;23.14;26.89
28683;BME280;15862;43.062;25.626;2023-02-13T11:13:22;101897.28;;;23.16;27.06
28683;BME280;15862;43.062;25.626;2023-02-13T11:18:30;101883.50;;;22.01;28.01
28683;BME280;15862;43.062;25.626;2023-02-13T11:21:09;101871.44;;;22.08;27.76
28683;BME280;15862;43.062;25.626;2023-02-13T11:23:42;101865.72;;;21.35;29.17
28683;BME280;15862;43.062;25.626;2023-02-13T11:26:11;101878.00;;;21.55;29.36
28683;BME280;15862;43.062;25.626;2023-02-13T11:28:54;101873.84;;;21.23;30.05
28683;BME280;15862;43.062;25.626;2023-02-13T11:31:33;101863.38;;;21.42;28.99
28683;BME280;15862;43.062;25.626;2023-02-13T11:34:24;101883.81;;;20.78;30.06
28683;BME280;15862;43.062;25.626;2023-02-13T11:37:08;101858.66;;;21.36;28.92
28683;BME280;15862;43.062;25.626;2023-02-13T11:39:39;101864.22;;;21.91;28.94
28683;BME280;15862;43.062;25.626;2023-02-13T11:42:18;101861.06;;;22.63;28.36
28683;BME280;15862;43.062;25.626;2023-02-13T11:44:50;101853.16;;;22.99;27.17
28683;BME280;15862;43.062;25.626;2023-02-13T11:47:38;101863.09;;;21.35;28.92
28683;BME280;15862;43.062;25.626;2023-02-13T11:50:18;101857.53;;;20.78;29.65
28683;BME280;15862;43.062;25.626;2023-02-13T11:53:02;101846.13;;;20.69;29.95
28683;BME280;15862;43.062;25.626;2023-02-13T11:55:35;101840.22;;;21.75;29.30
28683;BME280;15862;43.062;25.626;2023-02-13T11:58:23;101856.16;;;21.34;29.44
28683;BME280;15862;43.062;25.626;2023-02-13T12:00:47;101838.28;;;21.77;29.26
28683;BME280;15862;43.062;25.626;2023-02-13T12:03:30;101837.16;;;21.60;28.76
28683;BME280;15862;43.062;25.626;2023-02-13T12:06:09;101830.13;;;22.18;28.62
28683;BME280;15862;43.062;25.626;2023-02-13T12:08:41;101830.41;;;21.96;28.46
28683;BME280;15862;43.062;25.626;2023-02-13T12:11:20;101831.41;;;21.46;29.24
28683;BME280;15862;43.062;25.626;2023-02-13T12:13:47;101819.47;;;21.91;29.17
28683;BME280;15862;43.062;25.626;2023-02-13T12:16:37;101812.56;;;21.41;29.86
28683;BME280;15862;43.062;25.626;2023-02-13T12:19:18;101804.38;;;20.25;30.29
28683;BME280;15862;43.062;25.626;2023-02-13T12:21:59;101815.25;;;20.20;30.40
28683;BME280;15862;43.062;25.626;2023-02-13T12:25:11;101804.22;;;20.06;31.04
28683;BME280;15862;43.062;25.626;2023-02-13T13:03:24;101786.44;;;17.67;33.43
28683;BME280;15862;43.062;25.626;2023-02-13T13:20:00;101779.44;;;12.31;44.46
28683;BME280;15862;43.062;25.626;2023-02-13T13:22:45;101785.47;;;11.98;45.84
28683;BME280;15862;43.062;25.626;2023-02-13T13:27:52;101779.00;;;11.18;47.91
28683;BME280;15862;43.062;25.626;2023-02-13T13:30:26;101785.16;;;10.97;50.41
28683;BME280;15862;43.062;25.626;2023-02-13T13:33:01;101783.47;;;10.96;50.97
28683;BME280;15862;43.062;25.626;2023-02-13T13:35:28;101775.63;;;10.79;51.58
28683;BME280;15862;43.062;25.626;2023-02-13T13:38:14;101775.00;;;10.74;52.84
28683;BME280;15862;43.062;25.626;2023-02-13T13:40:55;101746.13;;;10.46;52.35
28683;BME280;15862;43.062;25.626;2023-02-13T13:51:31;101764.53;;;9.99;59.16
28683;BME280;15862;43.062;25.626;2023-02-13T13:56:26;101762.41;;;10.08;59.89
28683;BME280;15862;43.062;25.626;2023-02-13T14:05:02;101755.59;;;9.65;61.67
28683;BME280;15862;43.062;25.626;2023-02-13T14:07:39;101748.09;;;9.59;61.63
28683;BME280;15862;43.062;25.626;2023-02-13T14:11:01;101744.94;;;9.72;61.99
28683;BME280;15862;43.062;25.626;2023-02-13T14:13:07;101733.81;;;9.72;60.20
28683;BME280;15862;43.062;25.626;2023-02-13T14:17:59;101739.81;;;9.51;62.13
28683;BME280;15862;43.062;25.626;2023-02-13T14:26:08;101731.13;;;9.32;65.03
28683;BME280;15862;43.062;25.626;2023-02-13T14:28:34;101726.75;;;9.34;65.76
28683;BME280;15862;43.062;25.626;2023-02-13T14:31:08;101727.78;;;9.30;66.04
28683;BME280;15862;43.062;25.626;2023-02-13T14:36:46;101720.50;;;9.18;65.72
28683;BME280;15862;43.062;25.626;2023-02-13T14:39:30;101727.09;;;9.04;67.20
28683;BME280;15862;43.062;25.626;2023-02-13T14:41:58;101705.06;;;8.95;67.70
28683;BME280;15862;43.062;25.626;2023-02-13T14:44:33;101725.84;;;8.91;69.16
28683;BME280;15862;43.062;25.626;2023-02-13T14:47:03;101699.72;;;8.78;69.95
28683;BME280;15862;43.062;25.626;2023-02-13T14:49:35;101708.34;;;8.77;70.95
28683;BME280;15862;43.062;25.626;2023-02-13T14:52:06;101708.06;;;8.85;70.95
28683;BME280;15862;43.062;25.626;2023-02-13T14:54:42;101709.81;;;8.84;70.98
28683;BME280;15862;43.062;25.626;2023-02-13T14:57:19;101709.25;;;8.76;71.79
28683;BME280;15862;43.062;25.626;2023-02-13T14:59:49;101676.59;;;8.54;71.68
28683;BME280;15862;43.062;25.626;2023-02-13T15:02:25;101702.81;;;8.65;71.84
28683;BME280;15862;43.062;25.626;2023-02-13T15:07:35;101707.00;;;8.44;74.35
28683;BME280;15862;43.062;25.626;2023-02-13T15:10:41;101701.81;;;8.46;74.99
28683;BME280;15862;43.062;25.626;2023-02-13T15:13:21;101703.19;;;8.32;77.33
28683;BME280;15862;43.062;25.626;2023-02-13T15:15:55;101704.22;;;8.02;82.06
28683;BME280;15862;43.062;25.626;2023-02-13T15:18:49;101701.84;;;7.71;84.75
28683;BME280;15862;43.062;25.626;2023-02-13T15:21:21;101702.91;;;7.40;86.88
28683;BME280;15862;43.062;25.626;2023-02-13T15:23:50;101705.63;;;7.08;91.45
28683;BME280;15862;43.062;25.626;2023-02-13T15:26:21;101716.44;;;6.90;92.46
28683;BME280;15862;43.062;25.626;2023-02-13T15:29:00;101714.78;;;6.61;96.11
28683;BME280;15862;43.062;25.626;2023-02-13T15:31:29;101716.50;;;6.30;100.00
28683;BME280;15862;43.062;25.626;2023-02-13T15:33:55;101719.81;;;6.02;100.00
28683;BME280;15862;43.062;25.626;2023-02-13T15:36:24;101720.97;;;5.90;100.00